Time;durP1;ratioP1;P1;durP2;ratioP2;P2;SDS_P1;SDS_P2;PMS_P1;PMS_P2;Temp;Humidity;BMP_temperature;BMP_pressure;BME280_temperature;BME280_humidity;BME280_pressure;Samples;Min_cycle;Max_cycle;Signal;HPM_P1;HPM_P2
2023/05/16 00:01:51;;;;;;;;;;;;;;;11.61;88.22;97978.66;7372917;19;19914;-81
2023/05/16 00:04:17;;;;;;;;;;;;;;;11.62;88.74;97974.19;7379697;19;20618;-81
2023/05/16 00:06:44;;;;;;;;;;;;;;;11.63;88.37;97973.19;7375930;19;19918;-81
2023/05/16 00:09:14;;;;;;;;;;;;;;;11.58;88.16;97981.63;7373635;19;19930;-81
2023/05/16 00:11:41;;;;;;;;;;;;;;;11.55;88.02;97976.69;7375069;19;19931;-81
2023/05/16 00:14:07;;;;;;;;;;;;;;;11.54;88.40;97974.22;7379127;19;19939;-81
2023/05/16 00:16:35;;;;;;;;;;;;;;;11.50;88.09;97976.38;7372838;19;19919;-81
2023/05/16 00:19:03;;;;;;;;;;;;;;;11.50;88.23;97972.91;7375867;19;19919;-81
2023/05/16 00:21:30;;;;;;;;;;;;;;;11.43;88.24;97970.94;7378389;19;20480;-81
2023/05/16 00:23:57;;;;;;;;;;;;;;;11.47;88.19;97974.06;7370501;19;19918;-82
2023/05/16 00:26:25;;;;;;;;;;;;;;;11.46;88.79;97972.44;7376998;19;19991;-83
2023/05/16 00:28:51;;;;;;;;;;;;;;;11.49;89.37;97972.09;7376816;19;19922;-81
2023/05/16 00:31:18;;;;;;;;;;;;;;;11.52;89.22;97966.44;7380606;19;19955;-81
2023/05/16 00:33:45;;;;;;;;;;;;;;;11.51;88.94;97969.28;7383452;19;19923;-81
2023/05/16 00:36:11;;;;;;;;;;;;;;;11.52;89.31;97970.91;7380905;19;19926;-82
2023/05/16 00:38:38;;;;;;;;;;;;;;;11.56;88.91;97969.59;7375167;19;19919;-83
2023/05/16 00:41:05;;;;;;;;;;;;;;;11.57;89.00;97979.19;7380113;19;20249;-81
2023/05/16 00:43:31;;;;;;;;;;;;;;;11.54;89.26;97975.03;7377626;19;20345;-81
2023/05/16 00:45:59;;;;;;;;;;;;;;;11.54;89.42;97964.44;7378396;19;20421;-81
2023/05/16 00:48:27;;;;;;;;;;;;;;;11.55;89.22;97965.25;7382242;19;19919;-82
2023/05/16 00:50:54;;;;;;;;;;;;;;;11.55;89.38;97965.25;7376958;19;19919;-81
2023/05/16 00:53:20;;;;;;;;;;;;;;;11.52;89.14;97970.91;7375397;19;19934;-81
2023/05/16 00:55:47;;;;;;;;;;;;;;;11.51;88.92;97966.63;7375326;19;19923;-82
2023/05/16 00:58:14;;;;;;;;;;;;;;;11.48;88.49;97970.44;7380719;19;20607;-81
2023/05/16 01:00:41;;;;;;;;;;;;;;;11.43;88.44;97973.59;7379383;19;19927;-82
2023/05/16 01:03:08;;;;;;;;;;;;;;;11.41;88.52;97978.22;7378093;19;19953;-81
2023/05/16 01:05:36;;;;;;;;;;;;;;;11.40;89.02;97973.09;7375353;19;20534;-81
2023/05/16 01:08:04;;;;;;;;;;;;;;;11.41;89.19;97972.94;7377896;19;19971;-81
2023/05/16 01:10:40;;;;;;;;;;;;;;;11.37;89.54;97974.28;7375168;19;19944;-81
2023/05/16 01:13:25;;;;;;;;;;;;;;;11.29;89.29;97969.00;7378643;19;19922;-82
2023/05/16 01:15:58;;;;;;;;;;;;;;;11.21;89.38;97966.38;7374101;19;19942;-82
2023/05/16 01:18:31;;;;;;;;;;;;;;;11.15;89.78;97961.75;7380825;19;19934;-81
2023/05/16 01:21:02;;;;;;;;;;;;;;;11.11;90.12;97963.94;7377062;19;20321;-81
2023/05/16 01:23:38;;;;;;;;;;;;;;;11.10;90.17;97956.16;7378055;19;19915;-81
2023/05/16 01:26:09;;;;;;;;;;;;;;;11.15;90.33;97965.22;7377764;19;20309;-81
2023/05/16 01:28:35;;;;;;;;;;;;;;;11.20;90.10;97962.91;7373794;19;19923;-81
2023/05/16 01:31:02;;;;;;;;;;;;;;;11.19;89.41;97966.56;7377500;19;19922;-81
2023/05/16 01:33:29;;;;;;;;;;;;;;;11.19;89.36;97968.38;7379859;19;19926;-82
2023/05/16 01:36:10;;;;;;;;;;;;;;;11.16;89.31;97972.19;7386901;19;19918;-82
2023/05/16 01:38:40;;;;;;;;;;;;;;;11.18;89.56;97970.19;7374816;19;19930;-82
2023/05/16 01:41:16;;;;;;;;;;;;;;;11.15;89.24;97972.34;7378320;19;19939;-82
2023/05/16 01:43:44;;;;;;;;;;;;;;;11.14;89.23;97976.00;7374616;19;19923;-81
2023/05/16 01:46:20;;;;;;;;;;;;;;;11.04;89.33;97968.25;7373226;19;19923;-81
2023/05/16 01:48:47;;;;;;;;;;;;;;;10.99;89.57;97959.97;7373396;19;19921;-81
2023/05/16 01:51:13;;;;;;;;;;;;;;;10.92;89.74;97962.47;7378673;19;19926;-81
2023/05/16 01:53:41;;;;;;;;;;;;;;;10.91;89.46;97968.75;7377383;19;19926;-81
2023/05/16 01:56:08;;;;;;;;;;;;;;;10.87;89.18;97971.91;7377164;19;19915;-82
2023/05/16 01:58:35;;;;;;;;;;;;;;;10.88;89.02;97971.75;7376441;19;19951;-80
2023/05/16 02:01:03;;;;;;;;;;;;;;;10.85;89.03;97964.13;7379499;19;19986;-80
2023/05/16 02:03:30;;;;;;;;;;;;;;;10.86;88.77;97972.91;7379464;19;19919;-81
2023/05/16 02:05:57;;;;;;;;;;;;;;;10.89;89.13;97969.91;7375154;19;19954;-83
2023/05/16 02:08:23;;;;;;;;;;;;;;;10.87;89.21;97966.59;7378286;19;19979;-82
2023/05/16 02:10:50;;;;;;;;;;;;;;;10.83;89.04;97970.59;7376082;19;20341;-81
2023/05/16 02:13:17;;;;;;;;;;;;;;;10.80;89.26;97973.56;7375175;19;19975;-82
2023/05/16 02:15:44;;;;;;;;;;;;;;;10.80;88.93;97963.81;7370752;19;20345;-81
2023/05/16 02:18:11;;;;;;;;;;;;;;;10.82;89.31;97967.13;7375974;19;19929;-81
2023/05/16 02:20:38;;;;;;;;;;;;;;;10.81;89.29;97964.63;7376196;19;19918;-81
2023/05/16 02:23:05;;;;;;;;;;;;;;;10.80;89.19;97968.28;7376695;19;19949;-81
2023/05/16 02:25:32;;;;;;;;;;;;;;;10.80;89.31;97966.47;7379268;19;19947;-81
2023/05/16 02:27:59;;;;;;;;;;;;;;;10.84;89.47;97970.41;7368501;19;19922;-82
2023/05/16 02:30:25;;;;;;;;;;;;;;;10.83;89.71;97975.88;7381122;19;20467;-81
2023/05/16 02:32:52;;;;;;;;;;;;;;;10.85;90.33;97976.53;7373245;19;19922;-81
2023/05/16 02:35:19;;;;;;;;;;;;;;;10.87;90.43;97974.53;7372664;19;20349;-80
2023/05/16 02:37:46;;;;;;;;;;;;;;;10.88;89.97;97973.56;7370817;19;19922;-81
2023/05/16 02:40:14;;;;;;;;;;;;;;;10.85;89.55;97980.03;7369803;19;19926;-81
2023/05/16 02:42:40;;;;;;;;;;;;;;;10.84;89.41;97985.47;7372813;19;20288;-81
2023/05/16 02:45:07;;;;;;;;;;;;;;;10.85;89.41;97989.75;7370866;19;19981;-81
2023/05/16 02:47:34;;;;;;;;;;;;;;;10.83;89.70;97978.53;7371707;19;19926;-81
2023/05/16 02:50:01;;;;;;;;;;;;;;;10.81;89.87;97980.50;7372312;19;20425;-81
2023/05/16 02:52:28;;;;;;;;;;;;;;;10.81;90.08;97980.50;7378042;19;20374;-81
2023/05/16 02:54:56;;;;;;;;;;;;;;;10.79;89.87;97979.84;7360608;19;20038;-81
2023/05/16 02:57:42;;;;;;;;;;;;;;;10.77;90.42;97980.84;7360486;19;19978;-81
2023/05/16 03:00:11;;;;;;;;;;;;;;;10.78;90.13;97979.03;7366483;19;20356;-81
2023/05/16 03:02:38;;;;;;;;;;;;;;;10.75;90.36;97984.66;7366823;19;19911;-82
2023/05/16 03:05:06;;;;;;;;;;;;;;;10.73;90.60;97981.34;7370802;19;19983;-81
2023/05/16 03:07:33;;;;;;;;;;;;;;;10.70;91.34;97982.50;7375146;19;19947;-81
2023/05/16 03:09:59;;;;;;;;;;;;;;;10.75;91.31;97982.81;7370288;19;19911;-82
2023/05/16 03:12:26;;;;;;;;;;;;;;;10.77;91.47;97975.56;7381195;19;19944;-82
2023/05/16 03:14:53;;;;;;;;;;;;;;;10.80;91.55;97976.22;7378852;19;19915;-82
2023/05/16 03:17:20;;;;;;;;;;;;;;;10.82;91.39;97975.06;7376774;19;20309;-82
2023/05/16 03:19:46;;;;;;;;;;;;;;;10.82;91.26;97982.16;7373852;19;19922;-82
2023/05/16 03:22:13;;;;;;;;;;;;;;;10.82;91.07;97983.00;7381431;19;19945;-82
2023/05/16 03:24:41;;;;;;;;;;;;;;;10.86;91.28;97986.13;7371868;19;20371;-82
2023/05/16 03:27:10;;;;;;;;;;;;;;;10.85;90.91;97982.66;7369018;19;19929;-81
2023/05/16 03:29:37;;;;;;;;;;;;;;;10.87;90.66;97982.47;7371777;19;19922;-81
2023/05/16 03:32:04;;;;;;;;;;;;;;;10.87;90.67;97983.31;7373583;19;19936;-81
2023/05/16 03:34:30;;;;;;;;;;;;;;;10.87;90.53;97988.59;7371784;19;19918;-81
2023/05/16 03:36:57;;;;;;;;;;;;;;;10.88;90.56;97990.25;7368455;19;19926;-82
2023/05/16 03:39:24;;;;;;;;;;;;;;;10.91;90.60;97987.28;7388208;19;19915;-82
2023/05/16 03:41:51;;;;;;;;;;;;;;;10.89;90.74;97983.16;7382156;19;19966;-81
2023/05/16 03:44:18;;;;;;;;;;;;;;;10.88;90.85;97990.25;7373127;19;20349;-81
2023/05/16 03:46:44;;;;;;;;;;;;;;;10.89;91.12;97986.63;7367832;19;20668;-81
2023/05/16 03:49:12;;;;;;;;;;;;;;;10.94;91.04;97988.75;7377555;19;19919;-81
2023/05/16 03:51:38;;;;;;;;;;;;;;;10.96;91.06;97986.78;7372207;19;19955;-81
2023/05/16 03:54:05;;;;;;;;;;;;;;;10.97;91.15;97989.25;7372754;19;19936;-81
2023/05/16 03:56:31;;;;;;;;;;;;;;;10.98;91.02;97993.56;7374791;19;19923;-81
2023/05/16 03:58:58;;;;;;;;;;;;;;;10.99;90.95;97986.44;7370843;19;20512;-81
2023/05/16 04:01:25;;;;;;;;;;;;;;;11.02;91.31;97995.88;7371878;19;19935;-81
2023/05/16 04:03:51;;;;;;;;;;;;;;;11.04;91.49;97991.25;7369627;19;19926;-82
2023/05/16 04:06:37;;;;;;;;;;;;;;;11.07;91.44;97998.84;7377855;19;19915;-82
2023/05/16 04:09:05;;;;;;;;;;;;;;;11.09;91.39;98002.16;7372620;19;19922;-81
2023/05/16 04:11:32;;;;;;;;;;;;;;;11.14;91.43;98005.13;7380266;19;19922;-81
2023/05/16 04:14:00;;;;;;;;;;;;;;;11.13;91.30;98006.94;7381013;19;20387;-81
2023/05/16 04:16:27;;;;;;;;;;;;;;;11.16;91.56;98009.25;7377621;19;19983;-81
2023/05/16 04:18:55;;;;;;;;;;;;;;;11.19;91.49;98010.75;7378930;19;19918;-82
2023/05/16 04:21:21;;;;;;;;;;;;;;;11.17;91.53;98010.91;7382275;19;19922;-82
2023/05/16 04:23:48;;;;;;;;;;;;;;;11.21;91.67;98011.38;7382155;19;19935;-82
2023/05/16 04:26:15;;;;;;;;;;;;;;;11.25;91.71;98015.34;7382747;19;19911;-82
2023/05/16 04:28:42;;;;;;;;;;;;;;;11.25;91.89;98018.00;7383444;19;19919;-82
2023/05/16 04:31:09;;;;;;;;;;;;;;;11.26;91.63;98018.81;7384335;19;19943;-82
2023/05/16 04:33:36;;;;;;;;;;;;;;;11.25;91.79;98023.31;7384870;19;20395;-82
2023/05/16 04:36:04;;;;;;;;;;;;;;;11.31;92.01;98030.56;7379292;19;19947;-82
2023/05/16 04:38:31;;;;;;;;;;;;;;;11.32;91.68;98020.78;7377719;19;19929;-82
2023/05/16 04:40:58;;;;;;;;;;;;;;;11.30;91.79;98026.28;7374538;19;19922;-82
2023/05/16 04:43:25;;;;;;;;;;;;;;;11.31;91.49;98019.16;7386272;19;19923;-82
2023/05/16 04:45:57;;;;;;;;;;;;;;;11.33;91.54;98019.81;7380475;19;20916;-82
2023/05/16 04:48:24;;;;;;;;;;;;;;;11.31;91.61;98025.25;7383794;19;19931;-82
2023/05/16 04:50:51;;;;;;;;;;;;;;;11.28;91.35;98030.91;7382386;19;19915;-82
2023/05/16 04:53:18;;;;;;;;;;;;;;;11.28;91.25;98025.59;7382422;19;19930;-82
2023/05/16 04:55:45;;;;;;;;;;;;;;;11.32;91.41;98029.59;7383473;19;19950;-82
2023/05/16 04:58:11;;;;;;;;;;;;;;;11.31;91.46;98029.75;7382275;19;19939;-82
2023/05/16 05:00:38;;;;;;;;;;;;;;;11.36;91.83;98036.19;7381915;19;19918;-81
2023/05/16 05:03:05;;;;;;;;;;;;;;;11.35;91.57;98039.84;7378219;19;20392;-81
2023/05/16 05:05:32;;;;;;;;;;;;;;;11.37;91.35;98035.22;7381725;19;19947;-82
2023/05/16 05:08:00;;;;;;;;;;;;;;;11.42;91.64;98030.19;7374898;19;19927;-81
2023/05/16 05:10:27;;;;;;;;;;;;;;;11.43;91.66;98037.16;7380506;19;19922;-81
2023/05/16 05:12:53;;;;;;;;;;;;;;;11.45;91.75;98039.63;7380208;19;20274;-80
2023/05/16 05:15:20;;;;;;;;;;;;;;;11.39;91.72;98042.97;7383171;19;19940;-81
2023/05/16 05:17:47;;;;;;;;;;;;;;;11.34;91.73;98040.81;7374424;19;20338;-81
2023/05/16 05:20:14;;;;;;;;;;;;;;;11.37;91.70;98037.00;7380111;19;19919;-81
2023/05/16 05:22:41;;;;;;;;;;;;;;;11.36;91.99;98035.38;7383932;19;19929;-82
2023/05/16 05:25:08;;;;;;;;;;;;;;;11.32;92.19;98032.22;7373672;19;19946;-81
2023/05/16 05:27:34;;;;;;;;;;;;;;;11.40;92.51;98037.50;7385220;19;19914;-81
2023/05/16 05:30:01;;;;;;;;;;;;;;;11.40;92.91;98037.50;7379528;19;19947;-81
2023/05/16 05:32:28;;;;;;;;;;;;;;;11.45;92.73;98030.84;7382707;19;19915;-81
2023/05/16 05:34:55;;;;;;;;;;;;;;;11.48;93.04;98035.81;7385399;19;19939;-82
2023/05/16 05:37:22;;;;;;;;;;;;;;;11.44;92.79;98038.00;7376803;19;19952;-80
2023/05/16 05:39:48;;;;;;;;;;;;;;;11.43;92.78;98039.81;7375777;19;19922;-80
2023/05/16 05:42:15;;;;;;;;;;;;;;;11.40;92.45;98041.97;7377577;19;19943;-80
2023/05/16 05:44:42;;;;;;;;;;;;;;;11.41;92.74;98041.81;7388310;19;19942;-81
2023/05/16 05:47:10;;;;;;;;;;;;;;;11.46;92.78;98041.31;7394794;19;19923;-82
2023/05/16 05:49:37;;;;;;;;;;;;;;;11.41;92.80;98046.28;7389278;19;20773;-81
2023/05/16 05:52:04;;;;;;;;;;;;;;;11.52;92.55;98047.75;7385011;19;19923;-82
2023/05/16 05:54:30;;;;;;;;;;;;;;;11.52;92.39;98053.03;7380535;19;19918;-82
2023/05/16 05:56:57;;;;;;;;;;;;;;;11.51;92.64;98056.69;7380118;19;19935;-82
2023/05/16 05:59:24;;;;;;;;;;;;;;;11.53;92.56;98059.97;7384203;19;19914;-81
2023/05/16 06:01:53;;;;;;;;;;;;;;;11.55;92.19;98071.25;7384310;19;19919;-79
2023/05/16 06:04:20;;;;;;;;;;;;;;;11.52;92.25;98063.63;7384562;19;19922;-80
2023/05/16 06:06:47;;;;;;;;;;;;;;;11.61;92.11;98059.94;7380491;19;19931;-80
2023/05/16 06:09:14;;;;;;;;;;;;;;;11.59;92.25;98064.63;7380934;19;19930;-80
2023/05/16 06:11:40;;;;;;;;;;;;;;;11.59;92.51;98064.63;7386806;19;19911;-80
2023/05/16 06:14:07;;;;;;;;;;;;;;;11.70;92.58;98072.19;7380749;19;19915;-80
2023/05/16 06:16:34;;;;;;;;;;;;;;;11.73;92.01;98074.50;7376806;19;19944;-78
2023/05/16 06:19:00;;;;;;;;;;;;;;;11.75;92.23;98074.34;7382313;19;19921;-80
2023/05/16 06:21:27;;;;;;;;;;;;;;;11.84;91.68;98079.44;7386554;19;19918;-81
2023/05/16 06:23:54;;;;;;;;;;;;;;;11.89;92.20;98067.53;7380672;19;19947;-79
2023/05/16 06:26:21;;;;;;;;;;;;;;;11.97;91.75;98073.63;7382543;19;20287;-80
2023/05/16 06:28:48;;;;;;;;;;;;;;;12.03;92.11;98077.41;7381322;19;19926;-79
2023/05/16 06:31:14;;;;;;;;;;;;;;;12.09;92.14;98084.69;7388286;19;19923;-81
2023/05/16 06:33:41;;;;;;;;;;;;;;;12.16;91.61;98084.81;7386087;19;19926;-81
2023/05/16 06:36:08;;;;;;;;;;;;;;;12.30;91.22;98082.25;7381804;19;19919;-81
2023/05/16 06:38:34;;;;;;;;;;;;;;;12.28;91.18;98081.59;7383912;19;19935;-80
2023/05/16 06:41:01;;;;;;;;;;;;;;;12.35;90.38;98084.41;7383867;19;19939;-81
2023/05/16 06:43:28;;;;;;;;;;;;;;;12.34;90.36;98082.72;7380821;19;19911;-81
2023/05/16 06:45:55;;;;;;;;;;;;;;;12.27;89.47;98089.75;7375429;19;19921;-80
2023/05/16 06:48:22;;;;;;;;;;;;;;;12.32;89.72;98087.38;7379129;19;19947;-78
2023/05/16 06:50:50;;;;;;;;;;;;;;;12.49;89.52;98083.66;7381568;19;19918;-80
2023/05/16 06:53:17;;;;;;;;;;;;;;;12.46;89.39;98088.47;7382721;19;19918;-80
2023/05/16 06:55:44;;;;;;;;;;;;;;;12.52;89.31;98090.44;7382713;19;19951;-81
2023/05/16 06:58:14;;;;;;;;;;;;;;;12.55;89.86;98091.91;7384835;19;19929;-82
2023/05/16 07:00:41;;;;;;;;;;;;;;;12.52;89.77;98088.59;7384003;19;19931;-82
2023/05/16 07:03:07;;;;;;;;;;;;;;;12.56;90.08;98093.53;7379992;19;20833;-81
2023/05/16 07:05:34;;;;;;;;;;;;;;;12.54;90.12;98083.13;7379620;19;19995;-81
2023/05/16 07:08:01;;;;;;;;;;;;;;;12.55;89.31;98098.03;7377717;19;19952;-81
2023/05/16 07:10:29;;;;;;;;;;;;;;;12.52;89.20;98088.59;7385362;19;19934;-82
2023/05/16 07:12:57;;;;;;;;;;;;;;;12.55;89.69;98091.91;7381348;19;19922;-85
2023/05/16 07:15:23;;;;;;;;;;;;;;;12.40;89.24;98097.13;7382734;19;19986;-82
2023/05/16 07:17:51;;;;;;;;;;;;;;;12.44;89.38;98093.13;7378872;19;20368;-82
2023/05/16 07:20:17;;;;;;;;;;;;;;;12.44;90.43;98103.75;7381915;19;20281;-81
2023/05/16 07:22:44;;;;;;;;;;;;;;;12.37;89.34;98100.13;7380455;19;19910;-82
2023/05/16 07:25:13;;;;;;;;;;;;;;;12.50;89.50;98097.72;7372155;19;19919;-81
2023/05/16 07:27:43;;;;;;;;;;;;;;;12.42;88.96;98100.44;7374523;19;19927;-82
2023/05/16 07:30:11;;;;;;;;;;;;;;;12.46;88.04;98113.19;7378282;19;20459;-82
2023/05/16 07:32:39;;;;;;;;;;;;;;;12.55;88.61;98107.81;7379164;19;19933;-80
2023/05/16 07:35:06;;;;;;;;;;;;;;;12.41;88.62;98110.22;7374267;19;19950;-82
2023/05/16 07:37:33;;;;;;;;;;;;;;;12.33;89.24;98112.91;7378664;19;19911;-82
2023/05/16 07:40:00;;;;;;;;;;;;;;;12.15;89.03;98109.69;7372880;19;19927;-81
2023/05/16 07:42:26;;;;;;;;;;;;;;;12.15;88.92;98109.69;7379534;19;19938;-81
2023/05/16 07:44:53;;;;;;;;;;;;;;;12.11;88.70;98103.88;7379463;19;20464;-83
2023/05/16 07:47:20;;;;;;;;;;;;;;;12.09;89.52;98119.16;7380008;19;19925;-83
2023/05/16 07:49:47;;;;;;;;;;;;;;;12.15;88.54;98112.34;7378956;19;19931;-81
2023/05/16 07:52:13;;;;;;;;;;;;;;;12.24;88.72;98116.59;7377476;19;19986;-79
2023/05/16 07:54:40;;;;;;;;;;;;;;;12.27;88.99;98116.28;7380913;19;20253;-82
2023/05/16 07:57:07;;;;;;;;;;;;;;;12.33;89.07;98126.19;7376388;19;20341;-81
2023/05/16 07:59:33;;;;;;;;;;;;;;;12.35;88.75;98132.16;7377734;19;19921;-79
2023/05/16 08:02:00;;;;;;;;;;;;;;;12.25;87.38;98127.03;7378629;19;20617;-81
2023/05/16 08:04:27;;;;;;;;;;;;;;;12.20;87.55;98126.72;7390259;19;19926;-81
2023/05/16 08:06:54;;;;;;;;;;;;;;;12.19;87.79;98130.41;7376058;19;19919;-79
2023/05/16 08:09:20;;;;;;;;;;;;;;;12.07;87.64;98129.94;7378034;19;19934;-80
2023/05/16 08:11:47;;;;;;;;;;;;;;;12.04;87.68;98124.16;7380788;19;19978;-85
2023/05/16 08:14:14;;;;;;;;;;;;;;;11.92;87.20;98128.16;7377884;19;19919;-80
2023/05/16 08:16:41;;;;;;;;;;;;;;;11.96;87.27;98130.31;7377488;19;19927;-81
2023/05/16 08:19:07;;;;;;;;;;;;;;;12.00;87.32;98136.06;7377100;19;19919;-80
2023/05/16 08:21:35;;;;;;;;;;;;;;;11.92;87.24;98136.94;7382841;19;20249;-80
2023/05/16 08:24:02;;;;;;;;;;;;;;;11.90;87.51;98149.53;7377639;19;19925;-79
2023/05/16 08:26:28;;;;;;;;;;;;;;;11.85;87.73;98142.06;7376797;19;19917;-81
2023/05/16 08:28:55;;;;;;;;;;;;;;;11.75;86.60;98149.38;7377211;19;19914;-78
2023/05/16 08:31:22;;;;;;;;;;;;;;;11.76;86.61;98143.06;7378900;19;19923;-79
2023/05/16 08:33:49;;;;;;;;;;;;;;;11.86;87.32;98143.75;7378015;19;20445;-82
2023/05/16 08:36:18;;;;;;;;;;;;;;;11.93;87.59;98143.91;7373669;19;19919;-80
2023/05/16 08:38:45;;;;;;;;;;;;;;;11.91;86.73;98139.75;7376062;19;19946;-82
2023/05/16 08:41:12;;;;;;;;;;;;;;;11.91;87.15;98151.19;7374746;19;19923;-81
2023/05/16 08:43:38;;;;;;;;;;;;;;;11.96;86.30;98148.84;7377793;19;19922;-79
2023/05/16 08:46:06;;;;;;;;;;;;;;;12.10;87.05;98151.81;7366896;19;19927;-79
2023/05/16 08:48:32;;;;;;;;;;;;;;;12.13;86.62;98151.44;7374610;19;19915;-80
2023/05/16 08:51:00;;;;;;;;;;;;;;;12.06;86.27;98157.44;7376146;19;19922;-80
2023/05/16 08:53:30;;;;;;;;;;;;;;;12.13;86.32;98154.94;7381370;19;19927;-80
2023/05/16 08:55:57;;;;;;;;;;;;;;;12.16;86.65;98157.22;7382692;19;19922;-77
2023/05/16 08:58:24;;;;;;;;;;;;;;;12.17;86.07;98158.91;7385221;19;19923;-81
2023/05/16 09:00:51;;;;;;;;;;;;;;;12.05;86.22;98163.72;7387787;19;19926;-79
2023/05/16 09:03:19;;;;;;;;;;;;;;;12.03;86.41;98171.06;7380407;19;19929;-79
2023/05/16 09:05:46;;;;;;;;;;;;;;;12.02;86.33;98165.91;7380520;19;20630;-80
2023/05/16 09:08:13;;;;;;;;;;;;;;;11.98;85.78;98162.78;7381081;19;21348;-78
2023/05/16 09:10:39;;;;;;;;;;;;;;;11.97;86.12;98177.00;7385941;19;19911;-80
2023/05/16 09:13:06;;;;;;;;;;;;;;;11.90;86.14;98169.91;7382085;19;19919;-80
2023/05/16 09:15:33;;;;;;;;;;;;;;;11.94;86.95;98168.59;7385362;19;19926;-79
2023/05/16 09:18:01;;;;;;;;;;;;;;;11.92;86.91;98170.56;7379228;19;19919;-82
2023/05/16 09:20:28;;;;;;;;;;;;;;;11.88;86.39;98164.78;7393677;19;19927;-80
2023/05/16 09:22:55;;;;;;;;;;;;;;;11.91;87.04;98171.56;7395068;19;19946;-82
2023/05/16 09:25:23;;;;;;;;;;;;;;;11.93;86.82;98169.56;7395274;19;19974;-82
2023/05/16 09:27:53;;;;;;;;;;;;;;;11.91;86.74;98168.94;7393844;19;19951;-81
2023/05/16 09:30:20;;;;;;;;;;;;;;;11.92;86.99;98174.03;7397188;19;19903;-80
2023/05/16 09:32:47;;;;;;;;;;;;;;;11.87;87.02;98165.75;7393820;19;19923;-81
2023/05/16 09:35:15;;;;;;;;;;;;;;;11.86;86.93;98172.91;7391709;19;19926;-80
2023/05/16 09:37:51;;;;;;;;;;;;;;;11.91;86.79;98163.63;7390468;19;19922;-78
2023/05/16 09:40:21;;;;;;;;;;;;;;;12.01;87.10;98172.22;7391194;19;20138;-80
2023/05/16 09:43:04;;;;;;;;;;;;;;;12.01;87.56;98170.38;7389829;19;19918;-80
2023/05/16 09:45:31;;;;;;;;;;;;;;;12.00;86.60;98160.75;7389974;19;19922;-82
2023/05/16 09:48:05;;;;;;;;;;;;;;;12.01;86.54;98162.44;7383644;19;19915;-82
2023/05/16 09:50:33;;;;;;;;;;;;;;;12.10;86.85;98175.66;7385568;19;19939;-80
2023/05/16 09:53:00;;;;;;;;;;;;;;;12.08;87.15;98163.41;7376051;19;19923;-81
2023/05/16 09:55:27;;;;;;;;;;;;;;;12.03;86.88;98163.09;7384455;19;19922;-80
2023/05/16 09:57:54;;;;;;;;;;;;;;;11.99;86.84;98172.38;7383723;19;19918;-79
2023/05/16 10:00:21;;;;;;;;;;;;;;;12.07;87.41;98168.88;7383465;19;19919;-78
2023/05/16 10:02:48;;;;;;;;;;;;;;;12.17;87.88;98172.16;7384773;19;19926;-78
2023/05/16 10:05:16;;;;;;;;;;;;;;;12.13;86.79;98164.72;7376614;19;20026;-80
2023/05/16 10:07:43;;;;;;;;;;;;;;;12.00;86.17;98170.53;7380864;19;19938;-83
2023/05/16 10:10:10;;;;;;;;;;;;;;;12.00;85.92;98162.59;7376000;19;19915;-77
2023/05/16 10:12:36;;;;;;;;;;;;;;;12.05;86.44;98158.44;7381058;19;19926;-81
2023/05/16 10:15:04;;;;;;;;;;;;;;;12.07;86.17;98158.28;7380206;19;19923;-81
2023/05/16 10:17:32;;;;;;;;;;;;;;;12.17;86.26;98156.25;7382488;19;19910;-80
2023/05/16 10:20:06;;;;;;;;;;;;;;;12.29;85.95;98156.69;7378943;19;19983;-80
2023/05/16 10:22:35;;;;;;;;;;;;;;;12.34;86.04;98150.88;7383162;19;19915;-79
2023/05/16 10:25:21;;;;;;;;;;;;;;;12.45;85.71;98154.00;7379076;19;19939;-82
2023/05/16 10:27:47;;;;;;;;;;;;;;;12.28;86.49;98155.88;7381124;19;19978;-79
2023/05/16 10:30:16;;;;;;;;;;;;;;;12.36;85.96;98162.97;7380795;19;19930;-78
2023/05/16 10:32:43;;;;;;;;;;;;;;;12.48;86.27;98156.28;7382266;19;20270;-79
2023/05/16 10:35:10;;;;;;;;;;;;;;;12.60;87.02;98162.03;7379923;19;19929;-81
2023/05/16 10:37:37;;;;;;;;;;;;;;;12.75;86.44;98159.47;7378408;19;19923;-81
2023/05/16 10:40:04;;;;;;;;;;;;;;;12.76;85.32;98166.41;7375895;19;19922;-80
2023/05/16 10:42:32;;;;;;;;;;;;;;;12.73;84.60;98156.16;7381738;19;19926;-82
2023/05/16 10:45:10;;;;;;;;;;;;;;;12.74;84.08;98158.66;7379865;19;19915;-81
2023/05/16 10:47:37;;;;;;;;;;;;;;;12.79;84.37;98155.44;7381038;19;19948;-81
2023/05/16 10:50:04;;;;;;;;;;;;;;;12.57;84.01;98164.22;7378677;19;20256;-77
2023/05/16 10:52:32;;;;;;;;;;;;;;;12.59;84.12;98162.22;7382371;19;19950;-80
2023/05/16 10:54:59;;;;;;;;;;;;;;;12.54;84.42;98160.06;7375966;19;19923;-78
2023/05/16 10:57:25;;;;;;;;;;;;;;;12.49;84.88;98160.59;7379548;19;20408;-80
2023/05/16 11:00:00;;;;;;;;;;;;;;;12.56;84.43;98155.44;7377741;19;19931;-77
2023/05/16 11:02:33;;;;;;;;;;;;;;;12.58;85.04;98166.69;7383058;19;19911;-79
2023/05/16 11:05:00;;;;;;;;;;;;;;;12.51;85.38;98163.91;7378690;19;19919;-83
2023/05/16 11:07:35;;;;;;;;;;;;;;;12.61;85.29;98166.34;7380242;19;19915;-78
2023/05/16 11:10:09;;;;;;;;;;;;;;;12.63;84.71;98164.34;7373115;19;20261;-82
2023/05/16 11:12:36;;;;;;;;;;;;;;;12.60;85.51;98172.66;7381377;19;19925;-78
2023/05/16 11:15:27;;;;;;;;;;;;;;;12.47;85.66;98177.69;7374645;19;19911;-77
2023/05/16 11:18:07;;;;;;;;;;;;;;;12.29;85.69;98170.78;7376171;19;19974;-83
2023/05/16 11:20:35;;;;;;;;;;;;;;;12.27;86.10;98182.59;7381419;19;19927;-79
2023/05/16 11:23:15;;;;;;;;;;;;;;;12.18;86.56;98180.94;7380847;19;19928;-80
2023/05/16 11:25:43;;;;;;;;;;;;;;;12.09;86.66;98182.81;7377189;19;19940;-85
2023/05/16 11:28:09;;;;;;;;;;;;;;;12.04;87.30;98185.13;7380284;19;19990;-81
2023/05/16 11:30:36;;;;;;;;;;;;;;;11.98;87.92;98183.13;7381483;19;20257;-80
2023/05/16 11:33:03;;;;;;;;;;;;;;;11.94;87.86;98181.84;7376521;19;19928;-79
2023/05/16 11:35:30;;;;;;;;;;;;;;;11.91;88.13;98182.19;7377928;19;19939;-77
2023/05/16 11:37:56;;;;;;;;;;;;;;;11.92;87.72;98192.59;7377746;19;20013;-79
2023/05/16 11:40:23;;;;;;;;;;;;;;;11.93;87.47;98186.31;7379661;19;20352;-77
2023/05/16 11:42:50;;;;;;;;;;;;;;;11.89;87.59;98187.63;7380524;19;20014;-81
2023/05/16 11:45:18;;;;;;;;;;;;;;;11.85;87.53;98189.78;7376497;19;20337;-78
2023/05/16 11:47:46;;;;;;;;;;;;;;;11.88;87.76;98190.47;7378635;19;20720;-86
2023/05/16 11:50:14;;;;;;;;;;;;;;;12.00;87.78;98195.22;7379727;19;20362;-83
2023/05/16 11:52:45;;;;;;;;;;;;;;;11.98;87.24;98199.03;7381681;19;19918;-81
2023/05/16 11:55:13;;;;;;;;;;;;;;;12.12;86.95;98197.53;7378257;19;19915;-80
2023/05/16 11:57:54;;;;;;;;;;;;;;;12.08;86.20;98199.69;7380367;19;19970;-79
2023/05/16 12:00:21;;;;;;;;;;;;;;;12.08;85.21;98202.34;7375604;19;19926;-79
2023/05/16 12:02:51;;;;;;;;;;;;;;;12.02;85.74;98208.31;7376253;19;19918;-79
2023/05/16 12:05:19;;;;;;;;;;;;;;;11.94;85.26;98203.88;7374474;19;19936;-78
2023/05/16 12:07:46;;;;;;;;;;;;;;;12.02;84.89;98209.16;7378071;19;20261;-81
2023/05/16 12:10:13;;;;;;;;;;;;;;;12.04;84.50;98209.00;7380463;19;19926;-80
2023/05/16 12:12:41;;;;;;;;;;;;;;;12.02;84.28;98209.16;7379198;19;19923;-78
2023/05/16 12:15:08;;;;;;;;;;;;;;;12.06;84.38;98223.75;7373431;19;20110;-80
2023/05/16 12:17:35;;;;;;;;;;;;;;;12.11;84.11;98220.56;7372310;19;19919;-81
2023/05/16 12:20:05;;;;;;;;;;;;;;;12.08;83.71;98215.59;7375365;19;19926;-81
2023/05/16 12:22:34;;;;;;;;;;;;;;;12.12;83.50;98221.41;7380907;19;19939;-81
2023/05/16 12:25:19;;;;;;;;;;;;;;;12.20;83.54;98224.03;7375258;19;20343;-82
2023/05/16 12:27:46;;;;;;;;;;;;;;;12.25;82.69;98214.56;7382846;19;19944;-79
2023/05/16 12:30:15;;;;;;;;;;;;;;;12.37;81.84;98214.19;7382470;19;20354;-79
2023/05/16 12:32:44;;;;;;;;;;;;;;;12.60;81.97;98219.59;7381582;19;19951;-84
2023/05/16 12:35:17;;;;;;;;;;;;;;;12.67;81.33;98220.56;7384296;19;19926;-83
2023/05/16 12:37:44;;;;;;;;;;;;;;;12.56;81.08;98231.53;7385772;19;19930;-77
2023/05/16 12:40:12;;;;;;;;;;;;;;;12.56;80.92;98229.72;7380712;19;19919;-80
2023/05/16 12:42:42;;;;;;;;;;;;;;;12.47;81.18;98230.75;7388913;19;21345;-81
2023/05/16 12:45:17;;;;;;;;;;;;;;;12.47;81.73;98226.25;7385239;19;19919;-84
2023/05/16 12:47:45;;;;;;;;;;;;;;;12.32;81.77;98227.16;7382839;19;19918;-81
2023/05/16 12:50:13;;;;;;;;;;;;;;;12.30;81.44;98227.34;7390334;19;19978;-81
2023/05/16 12:52:50;;;;;;;;;;;;;;;12.33;81.44;98228.81;7388659;19;19918;-79